Time;durP1;ratioP1;P1;durP2;ratioP2;P2;SDS_P1;SDS_P2;PMS_P1;PMS_P2;Temp;Humidity;BMP_temperature;BMP_pressure;BME280_temperature;BME280_humidity;BME280_pressure;Samples;Min_cycle;Max_cycle;Signal;HPM_P1;HPM_P2
2022/12/10 00:00:20;;;;;;;;;;;;;;;-8.23;73.84;100775.31;5096689;28;19938;-72
2022/12/10 00:02:45;;;;;;;;;;;;;;;-8.26;74.03;100774.63;5093092;28;19965;-71
2022/12/10 00:05:10;;;;;;;;;;;;;;;-8.32;73.72;100764.47;5088070;28;20356;-71
2022/12/10 00:07:36;;;;;;;;;;;;;;;-8.37;74.38;100769.88;5091004;28;19916;-70
2022/12/10 00:10:01;;;;;;;;;;;;;;;-8.37;73.69;100768.09;5090606;28;19923;-71
2022/12/10 00:12:26;;;;;;;;;;;;;;;-8.37;74.74;100775.91;5089551;28;19931;-70
2022/12/10 00:14:51;;;;;;;;;;;;;;;-8.37;74.56;100772.47;5092393;28;19931;-69
2022/12/10 00:17:17;;;;;;;;;;;;;;;-8.40;74.08;100770.00;5088877;28;19943;-69
2022/12/10 00:19:42;;;;;;;;;;;;;;;-8.40;74.04;100775.19;5091153;28;19916;-70
2022/12/10 00:22:07;;;;;;;;;;;;;;;-8.42;74.17;100766.66;5091011;28;19920;-71
2022/12/10 00:24:32;;;;;;;;;;;;;;;-8.45;74.35;100769.38;5086269;28;20050;-69
2022/12/10 00:26:58;;;;;;;;;;;;;;;-8.45;73.69;100770.25;5091850;28;19920;-69
2022/12/10 00:29:23;;;;;;;;;;;;;;;-8.45;73.78;100765.03;5089377;28;19920;-68
2022/12/10 00:31:48;;;;;;;;;;;;;;;-8.44;73.90;100758.91;5091110;28;19923;-71
2022/12/10 00:34:14;;;;;;;;;;;;;;;-8.45;73.63;100766.75;5092184;28;20373;-72
2022/12/10 00:36:44;;;;;;;;;;;;;;;-8.46;73.49;100762.47;5089255;28;19970;-71
2022/12/10 00:39:11;;;;;;;;;;;;;;;-8.48;73.45;100772.97;5090706;28;19923;-70
2022/12/10 00:41:36;;;;;;;;;;;;;;;-8.50;73.55;100774.78;5088682;28;19923;-74
2022/12/10 00:44:01;;;;;;;;;;;;;;;-8.53;73.74;100777.50;5089388;28;19916;-69
2022/12/10 00:46:27;;;;;;;;;;;;;;;-8.53;73.80;100781.88;5090738;28;20406;-67
2022/12/10 00:48:53;;;;;;;;;;;;;;;-8.54;73.86;100781.03;5089211;28;19923;-68
2022/12/10 00:51:20;;;;;;;;;;;;;;;-8.58;74.10;100788.13;5090678;28;19916;-69
2022/12/10 00:53:46;;;;;;;;;;;;;;;-8.58;74.12;100789.88;5091594;28;19926;-69
2022/12/10 00:56:12;;;;;;;;;;;;;;;-8.59;74.07;100791.63;5088500;28;20431;-69
2022/12/10 00:58:38;;;;;;;;;;;;;;;-8.57;73.78;100797.63;5090468;28;20002;-70
2022/12/10 01:01:08;;;;;;;;;;;;;;;-8.62;73.84;100796.13;5088399;28;20019;-70
2022/12/10 01:03:33;;;;;;;;;;;;;;;-8.64;74.40;100806.59;5091281;28;19912;-68
2022/12/10 01:06:07;;;;;;;;;;;;;;;-8.65;74.12;100806.66;5091996;28;20361;-68
2022/12/10 01:08:32;;;;;;;;;;;;;;;-8.68;74.47;100804.19;5087074;28;20367;-68
2022/12/10 01:10:57;;;;;;;;;;;;;;;-8.67;73.93;100800.66;5089779;28;19926;-66
2022/12/10 01:13:22;;;;;;;;;;;;;;;-8.69;73.99;100803.34;5088720;28;19963;-67
2022/12/10 01:15:48;;;;;;;;;;;;;;;-8.71;73.90;100806.91;5090422;28;19973;-67
2022/12/10 01:18:13;;;;;;;;;;;;;;;-8.70;73.98;100812.03;5090210;28;20275;-66
2022/12/10 01:20:39;;;;;;;;;;;;;;;-8.76;73.68;100804.50;5087783;28;20264;-65
2022/12/10 01:23:04;;;;;;;;;;;;;;;-8.79;73.79;100810.66;5090746;28;19935;-66
2022/12/10 01:25:30;;;;;;;;;;;;;;;-8.80;74.05;100803.78;5090078;28;19916;-67
2022/12/10 01:27:55;;;;;;;;;;;;;;;-8.81;74.31;100809.88;5088967;28;19919;-65
2022/12/10 01:30:21;;;;;;;;;;;;;;;-8.81;74.05;100809.88;5087609;28;19923;-66
2022/12/10 01:32:46;;;;;;;;;;;;;;;-8.78;73.83;100801.94;5087606;28;19912;-67
2022/12/10 01:35:11;;;;;;;;;;;;;;;-8.76;73.72;100802.72;5090811;28;19912;-67
2022/12/10 01:37:37;;;;;;;;;;;;;;;-8.78;73.08;100804.56;5091131;28;20862;-67
2022/12/10 01:40:02;;;;;;;;;;;;;;;-8.80;73.94;100808.97;5088525;28;19916;-72
2022/12/10 01:42:27;;;;;;;;;;;;;;;-8.79;73.57;100800.25;5089226;28;19952;-70
2022/12/10 01:44:58;;;;;;;;;;;;;;;-8.81;74.00;100806.44;5088713;28;19923;-72
2022/12/10 01:47:27;;;;;;;;;;;;;;;-8.78;73.57;100809.75;5089312;28;19923;-72
2022/12/10 01:49:53;;;;;;;;;;;;;;;-8.77;73.81;100811.44;5088505;28;19916;-73
2022/12/10 01:52:18;;;;;;;;;;;;;;;-8.73;73.83;100814.75;5087792;28;19916;-70
2022/12/10 01:54:45;;;;;;;;;;;;;;;-8.77;73.90;100808.84;5090086;28;19990;-71
2022/12/10 01:57:16;;;;;;;;;;;;;;;-8.76;73.68;100812.31;5084768;28;19977;-68
2022/12/10 01:59:42;;;;;;;;;;;;;;;-8.77;74.22;100815.81;5085529;28;19923;-70
2022/12/10 02:04:43;;;;;;;;;;;;;;;-8.84;74.84;100815.22;5493712;23;19939;-67
2022/12/10 02:07:11;;;;;;;;;;;;;;;-8.81;73.94;100816.84;5014152;28;20471;-67
2022/12/10 02:09:44;;;;;;;;;;;;;;;-8.74;73.66;100812.25;5021150;28;20789;-67
2022/12/10 02:12:28;;;;;;;;;;;;;;;-8.73;73.86;100811.31;5010373;28;20017;-69
2022/12/10 02:14:56;;;;;;;;;;;;;;;-8.73;74.42;100813.94;5018938;28;19921;-67
2022/12/10 02:20:11;;;;;;;;;;;;;;;-8.77;74.49;100808.84;5360719;23;19937;-65
2022/12/10 02:22:40;;;;;;;;;;;;;;;-8.76;74.06;100810.53;5001647;28;19921;-67
2022/12/10 02:25:07;;;;;;;;;;;;;;;-8.72;73.63;100806.06;5002317;28;19920;-67
2022/12/10 02:27:48;;;;;;;;;;;;;;;-8.72;73.85;100807.81;5002342;28;19936;-66
2022/12/10 02:30:14;;;;;;;;;;;;;;;-8.70;73.80;100800.78;5002702;28;19914;-67
2022/12/10 02:32:41;;;;;;;;;;;;;;;-8.65;73.47;100809.28;5004474;28;19917;-67
2022/12/10 02:35:13;;;;;;;;;;;;;;;-8.67;73.75;100808.47;5004061;28;19946;-67
2022/12/10 02:37:42;;;;;;;;;;;;;;;-8.65;74.11;100802.31;5004036;28;19964;-67
2022/12/10 02:40:11;;;;;;;;;;;;;;;-8.65;74.36;100801.47;5002648;28;19922;-67
2022/12/10 02:42:38;;;;;;;;;;;;;;;-8.67;74.01;100796.31;5005796;28;19928;-67
2022/12/10 02:45:05;;;;;;;;;;;;;;;-8.67;74.03;100809.34;5007783;28;19925;-67
2022/12/10 02:47:31;;;;;;;;;;;;;;;-8.64;73.98;100800.53;5007177;28;19913;-67
2022/12/10 02:49:58;;;;;;;;;;;;;;;-8.66;74.23;100802.34;5007944;28;19917;-67
2022/12/10 02:52:24;;;;;;;;;;;;;;;-8.69;74.12;100797.28;5007561;28;19922;-67
2022/12/10 02:54:49;;;;;;;;;;;;;;;-8.70;74.71;100803.41;5005630;28;19947;-67
2022/12/10 02:57:15;;;;;;;;;;;;;;;-8.67;74.22;100800.66;5006297;28;19921;-67
2022/12/10 02:59:55;;;;;;;;;;;;;;;-8.69;74.62;100798.13;5004923;28;19918;-67
2022/12/10 03:02:25;;;;;;;;;;;;;;;-8.69;74.92;100797.28;5005799;28;19920;-67
2022/12/10 03:04:57;;;;;;;;;;;;;;;-8.65;74.89;100794.50;5006291;28;19921;-67
2022/12/10 03:07:27;;;;;;;;;;;;;;;-8.63;74.14;100794.44;5020385;28;19928;-67
2022/12/10 03:10:00;;;;;;;;;;;;;;;-8.60;73.72;100799.50;5006003;28;19926;-67
2022/12/10 03:12:28;;;;;;;;;;;;;;;-8.60;73.28;100799.50;5005935;28;20004;-66
2022/12/10 03:14:57;;;;;;;;;;;;;;;-8.60;73.87;100802.09;5006150;28;19917;-66
2022/12/10 03:17:23;;;;;;;;;;;;;;;-8.62;74.06;100806.53;5005709;28;19932;-66
2022/12/10 03:19:50;;;;;;;;;;;;;;;-8.60;73.68;100799.50;5004725;28;19925;-66
2022/12/10 03:22:17;;;;;;;;;;;;;;;-8.58;73.71;100801.16;5007128;28;19913;-66
2022/12/10 03:24:43;;;;;;;;;;;;;;;-8.59;73.25;100793.41;5004491;28;20035;-66
2022/12/10 03:27:10;;;;;;;;;;;;;;;-8.58;74.46;100795.06;5005591;28;19949;-66
2022/12/10 03:29:37;;;;;;;;;;;;;;;-8.62;73.47;100815.16;5006076;28;19919;-66
2022/12/10 03:32:04;;;;;;;;;;;;;;;-8.58;73.21;100808.09;5005426;28;19925;-66
2022/12/10 03:34:29;;;;;;;;;;;;;;;-8.56;73.09;100808.91;5003814;28;19918;-66
2022/12/10 03:36:54;;;;;;;;;;;;;;;-8.53;72.83;100808.75;5003095;28;19964;-66
2022/12/10 03:39:20;;;;;;;;;;;;;;;-8.56;72.68;100811.50;5003305;28;20438;-66
2022/12/10 03:41:45;;;;;;;;;;;;;;;-8.52;72.50;100805.25;5003464;28;20223;-66
2022/12/10 03:44:11;;;;;;;;;;;;;;;-8.51;72.16;100808.69;4985191;28;19913;-66
2022/12/10 03:46:36;;;;;;;;;;;;;;;-8.55;72.41;100802.75;5002180;28;20370;-66
2022/12/10 03:49:02;;;;;;;;;;;;;;;-8.47;71.80;100792.03;5004202;28;20396;-66
2022/12/10 03:51:28;;;;;;;;;;;;;;;-8.49;71.81;100799.06;5003266;28;19917;-66
2022/12/10 03:53:53;;;;;;;;;;;;;;;-8.58;72.50;100800.28;5003449;28;19921;-66
2022/12/10 03:56:19;;;;;;;;;;;;;;;-8.69;72.50;100799.88;5004814;28;19917;-67
2022/12/10 03:58:44;;;;;;;;;;;;;;;-8.81;72.79;100796.84;5004796;28;19924;-66
2022/12/10 04:01:10;;;;;;;;;;;;;;;-8.93;73.01;100786.97;5004526;28;19958;-66
2022/12/10 04:03:36;;;;;;;;;;;;;;;-9.00;73.81;100798.50;5004680;28;19973;-66
2022/12/10 04:06:02;;;;;;;;;;;;;;;-9.00;73.79;100799.34;5004371;28;19913;-66
2022/12/10 04:08:28;;;;;;;;;;;;;;;-9.04;74.06;100800.38;5004620;28;20235;-66
2022/12/10 04:10:53;;;;;;;;;;;;;;;-9.07;73.95;100797.91;5003843;28;19914;-66
2022/12/10 04:18:46;;;;;;;;;;;;;;;-9.20;74.25;100794.91;5003988;28;20370;-66
2022/12/10 04:29:34;;;;;;;;;;;;;;;-9.30;74.07;100800.53;4993225;28;19913;-66
2022/12/10 04:31:59;;;;;;;;;;;;;;;-9.35;74.42;100801.56;5003004;28;20069;-66
2022/12/10 04:34:25;;;;;;;;;;;;;;;-9.43;74.41;100800.19;5003740;28;19924;-66
2022/12/10 04:36:50;;;;;;;;;;;;;;;-9.50;74.69;100803.91;5003497;28;19920;-66
2022/12/10 04:39:16;;;;;;;;;;;;;;;-10.54;74.15;100643.22;5004005;28;20334;-66
2022/12/10 04:41:42;;;;;;;;;;;;;;;-9.62;74.47;100807.78;5003472;28;19952;-66
2022/12/10 04:44:07;;;;;;;;;;;;;;;-9.59;75.43;100810.28;5004863;28;19996;-66
2022/12/10 04:46:33;;;;;;;;;;;;;;;-9.64;74.63;100814.81;5003557;28;19917;-66
2022/12/10 04:48:58;;;;;;;;;;;;;;;-9.71;74.70;100810.72;5003565;28;20008;-66
2022/12/10 04:51:23;;;;;;;;;;;;;;;-9.81;75.07;100807.63;5003468;28;19944;-66
2022/12/10 04:53:48;;;;;;;;;;;;;;;-9.89;74.95;100807.91;5003660;28;19917;-66
2022/12/10 04:56:14;;;;;;;;;;;;;;;-9.85;75.63;100808.63;5003579;28;20306;-66
2022/12/10 04:58:39;;;;;;;;;;;;;;;-9.76;75.54;100816.09;5004461;28;19918;-66
2022/12/10 05:01:05;;;;;;;;;;;;;;;-9.84;75.77;100810.31;5002989;28;20471;-66
2022/12/10 05:03:31;;;;;;;;;;;;;;;-9.92;76.33;100810.59;5002894;28;19913;-66
2022/12/10 05:06:00;;;;;;;;;;;;;;;-9.96;77.81;100809.00;5002789;28;19914;-66
2022/12/10 05:08:25;;;;;;;;;;;;;;;-10.01;77.50;100809.19;5003368;28;20004;-67
2022/12/10 05:10:50;;;;;;;;;;;;;;;-10.07;77.75;100808.56;5003435;28;20000;-66
2022/12/10 05:13:16;;;;;;;;;;;;;;;-10.14;77.86;100810.50;5001357;28;19918;-66
2022/12/10 05:15:41;;;;;;;;;;;;;;;-10.19;77.68;100817.63;5003184;28;19917;-66
2022/12/10 05:18:06;;;;;;;;;;;;;;;-10.27;77.67;100811.81;5002413;28;19964;-66
2022/12/10 05:20:31;;;;;;;;;;;;;;;-10.28;78.16;100815.34;5003637;28;19932;-67
2022/12/10 05:25:52;;;;;;;;;;;;;;;-10.32;78.25;100815.47;5003725;28;20008;-67
2022/12/10 05:28:19;;;;;;;;;;;;;;;-10.34;78.95;100812.09;5001267;28;19921;-66
2022/12/10 05:30:44;;;;;;;;;;;;;;;-10.35;79.00;100812.97;5002311;28;19937;-66
2022/12/10 05:33:10;;;;;;;;;;;;;;;-10.39;78.93;100819.16;5001792;28;19914;-67
2022/12/10 05:35:35;;;;;;;;;;;;;;;-10.38;79.04;100815.69;5002203;28;20293;-66
2022/12/10 05:38:02;;;;;;;;;;;;;;;-10.36;79.27;100831.22;5000962;28;19922;-66
2022/12/10 05:40:27;;;;;;;;;;;;;;;-10.41;78.83;100827.91;5001950;28;19924;-66
2022/12/10 05:42:53;;;;;;;;;;;;;;;-10.47;78.53;100834.16;5001761;28;20506;-66
2022/12/10 05:45:18;;;;;;;;;;;;;;;-10.53;78.97;100831.75;5002230;28;19997;-66
2022/12/10 05:47:43;;;;;;;;;;;;;;;-10.59;78.98;100825.00;5002245;28;19964;-66
2022/12/10 05:50:08;;;;;;;;;;;;;;;-10.62;78.80;100826.84;5002943;28;19914;-66
2022/12/10 05:52:33;;;;;;;;;;;;;;;-10.66;78.49;100825.25;5002600;28;19914;-66
2022/12/10 05:54:59;;;;;;;;;;;;;;;-10.66;79.31;100826.09;5011800;28;20004;-66
2022/12/10 05:57:24;;;;;;;;;;;;;;;-10.68;78.86;100827.06;5010575;28;20384;-66
2022/12/10 05:59:49;;;;;;;;;;;;;;;-10.69;79.14;100826.22;5007845;28;20301;-66
2022/12/10 06:02:15;;;;;;;;;;;;;;;-10.67;79.33;100829.63;5004401;28;19917;-66
2022/12/10 06:04:41;;;;;;;;;;;;;;;-10.70;79.10;100834.88;5004305;28;20451;-66
2022/12/10 06:07:06;;;;;;;;;;;;;;;-10.69;79.17;100841.78;5004167;28;20000;-66
2022/12/10 06:09:31;;;;;;;;;;;;;;;-10.73;79.40;100835.84;5002768;28;19921;-66
2022/12/10 06:11:57;;;;;;;;;;;;;;;-10.72;79.67;100837.53;5002279;28;20004;-66
2022/12/10 06:14:22;;;;;;;;;;;;;;;-10.73;79.45;100837.59;5002536;28;19933;-66
2022/12/10 06:16:47;;;;;;;;;;;;;;;-10.78;79.21;100839.50;5001580;28;19928;-66
2022/12/10 06:19:12;;;;;;;;;;;;;;;-10.81;79.72;100829.19;5001391;28;19936;-66
2022/12/10 06:21:38;;;;;;;;;;;;;;;-10.85;79.51;100836.22;5002155;28;20333;-66
2022/12/10 06:24:03;;;;;;;;;;;;;;;-10.85;79.53;100833.63;5001962;28;19914;-66
2022/12/10 06:26:28;;;;;;;;;;;;;;;-10.82;79.54;100835.31;5000482;28;19917;-66
2022/12/10 06:28:54;;;;;;;;;;;;;;;-10.82;79.85;100835.31;5001006;28;19946;-66
2022/12/10 06:31:19;;;;;;;;;;;;;;;-10.84;79.92;100847.47;5000682;28;20301;-66
2022/12/10 06:33:45;;;;;;;;;;;;;;;-10.89;79.46;100844.16;5000952;28;20021;-66
2022/12/10 06:36:11;;;;;;;;;;;;;;;-10.89;79.49;100857.97;5001432;28;19941;-66
2022/12/10 06:38:37;;;;;;;;;;;;;;;-10.93;79.82;100849.44;5002236;28;20382;-66
2022/12/10 06:41:07;;;;;;;;;;;;;;;-10.96;79.38;100848.69;5001619;28;20020;-66
2022/12/10 06:43:32;;;;;;;;;;;;;;;-11.00;79.39;100853.09;5002068;28;20031;-66
2022/12/10 06:45:57;;;;;;;;;;;;;;;-11.02;79.83;100848.88;5001725;28;20260;-66
2022/12/10 06:48:23;;;;;;;;;;;;;;;-11.05;79.81;100849.81;5001195;28;19925;-66
2022/12/10 06:50:48;;;;;;;;;;;;;;;-11.05;80.34;100856.75;5001388;28;19926;-66
2022/12/10 06:53:13;;;;;;;;;;;;;;;-11.05;79.96;100855.00;5001676;28;19918;-66
2022/12/10 06:55:38;;;;;;;;;;;;;;;-11.00;80.96;100857.47;5000938;28;19922;-66
2022/12/10 06:58:04;;;;;;;;;;;;;;;-11.02;80.38;100856.66;5001537;28;19917;-66
2022/12/10 07:00:29;;;;;;;;;;;;;;;-10.92;80.94;100852.88;5001374;28;19925;-66
2022/12/10 07:02:55;;;;;;;;;;;;;;;-10.86;80.78;100857.88;5002100;28;19924;-67
2022/12/10 07:05:20;;;;;;;;;;;;;;;-10.89;79.33;100857.97;4998638;28;20290;-66
2022/12/10 07:07:46;;;;;;;;;;;;;;;-10.81;80.01;100858.56;5000250;28;19918;-66
2022/12/10 07:10:14;;;;;;;;;;;;;;;-10.68;79.50;100855.59;5000960;28;19957;-66
2022/12/10 07:12:39;;;;;;;;;;;;;;;-10.78;78.92;100862.84;5001142;28;19914;-66
2022/12/10 07:15:04;;;;;;;;;;;;;;;-10.54;79.67;100856.84;5001350;28;19967;-66
2022/12/10 07:17:29;;;;;;;;;;;;;;;-10.58;78.94;100867.41;5003039;28;19925;-66
2022/12/10 07:19:55;;;;;;;;;;;;;;;-10.56;79.50;100869.03;5001880;28;19977;-66
2022/12/10 07:22:20;;;;;;;;;;;;;;;-10.62;78.71;100858.00;5001006;28;19917;-67
2022/12/10 07:24:47;;;;;;;;;;;;;;;-10.70;79.14;100866.03;5005230;28;19963;-66
2022/12/10 07:27:12;;;;;;;;;;;;;;;-10.81;78.65;100871.53;5002319;28;19928;-66
2022/12/10 07:29:37;;;;;;;;;;;;;;;-10.90;79.09;100866.63;5007013;28;19917;-66
2022/12/10 07:32:03;;;;;;;;;;;;;;;-10.97;79.00;100866.00;5006965;28;19980;-66
2022/12/10 07:34:28;;;;;;;;;;;;;;;-11.02;80.07;100869.63;5004063;28;20013;-66
2022/12/10 07:36:54;;;;;;;;;;;;;;;-11.05;80.08;100869.72;5006643;28;19926;-66
2022/12/10 07:39:20;;;;;;;;;;;;;;;-11.05;80.32;100869.72;5004298;28;19922;-66
2022/12/10 07:41:50;;;;;;;;;;;;;;;-11.04;79.98;100876.59;5005433;28;20271;-66
2022/12/10 07:44:18;;;;;;;;;;;;;;;-11.03;80.25;100886.06;5003820;28;19953;-66
2022/12/10 07:46:44;;;;;;;;;;;;;;;-11.05;80.55;100886.09;5004474;28;19922;-66
2022/12/10 07:49:09;;;;;;;;;;;;;;;-11.05;80.42;100893.88;5004992;28;19932;-66
2022/12/10 07:51:34;;;;;;;;;;;;;;;-11.10;80.02;100894.03;5004011;28;19917;-66
2022/12/10 07:54:00;;;;;;;;;;;;;;;-11.16;80.31;100904.59;5004321;28;19926;-66
2022/12/10 07:56:25;;;;;;;;;;;;;;;-11.22;79.53;100902.16;5004531;28;19924;-66
2022/12/10 07:58:51;;;;;;;;;;;;;;;-11.24;79.90;100905.69;5003083;28;19917;-66
2022/12/10 08:01:22;;;;;;;;;;;;;;;-11.27;80.12;100911.84;5002837;28;20292;-66
2022/12/10 08:03:47;;;;;;;;;;;;;;;-11.29;80.00;100908.41;5004033;28;19924;-66
2022/12/10 08:06:17;;;;;;;;;;;;;;;-11.27;80.52;100911.84;5004166;28;19922;-66
2022/12/10 08:08:43;;;;;;;;;;;;;;;-11.23;80.54;100910.84;5004983;28;19966;-66
2022/12/10 08:11:09;;;;;;;;;;;;;;;-11.24;80.21;100913.47;5003414;28;20466;-65
2022/12/10 08:13:34;;;;;;;;;;;;;;;-11.25;80.70;100909.16;5004777;28;20324;-66
2022/12/10 08:16:00;;;;;;;;;;;;;;;-11.25;80.68;100909.16;5003598;28;19920;-65
2022/12/10 08:18:26;;;;;;;;;;;;;;;-11.22;80.54;100912.53;5003964;28;19924;-66
2022/12/10 08:20:51;;;;;;;;;;;;;;;-11.14;80.85;100907.16;5003351;28;19921;-66
2022/12/10 08:23:16;;;;;;;;;;;;;;;-11.05;80.96;100912.03;5003162;28;19971;-66
2022/12/10 08:25:42;;;;;;;;;;;;;;;-11.01;80.80;100915.38;5003868;28;20324;-65
2022/12/10 08:28:08;;;;;;;;;;;;;;;-10.98;80.56;100910.97;5004172;28;19918;-65
2022/12/10 08:30:34;;;;;;;;;;;;;;;-10.98;80.18;100917.91;5003337;28;19976;-65
2022/12/10 08:32:59;;;;;;;;;;;;;;;-10.96;80.93;100922.13;5003478;28;19922;-65
2022/12/10 08:35:25;;;;;;;;;;;;;;;-10.94;80.72;100919.50;5004203;28;19921;-65
2022/12/10 08:37:50;;;;;;;;;;;;;;;-10.95;80.26;100925.59;5003909;28;19929;-65
2022/12/10 08:40:16;;;;;;;;;;;;;;;-10.98;79.95;100923.09;5004647;28;20032;-65
2022/12/10 08:42:43;;;;;;;;;;;;;;;-10.97;80.53;100923.06;5004456;28;20112;-66
2022/12/10 08:45:09;;;;;;;;;;;;;;;-10.94;80.44;100922.09;5003632;28;19928;-66
2022/12/10 08:47:34;;;;;;;;;;;;;;;-10.93;80.43;100923.81;5003690;28;20324;-66
2022/12/10 08:49:59;;;;;;;;;;;;;;;-10.84;80.65;100923.53;5003700;28;19918;-66
2022/12/10 08:52:25;;;;;;;;;;;;;;;-10.82;80.08;100924.34;5003017;28;19945;-67
2022/12/10 08:54:50;;;;;;;;;;;;;;;-10.83;80.10;100924.38;5001904;28;19921;-66
2022/12/10 08:57:15;;;;;;;;;;;;;;;-10.81;79.98;100925.19;5003214;28;19952;-66
2022/12/10 08:59:40;;;;;;;;;;;;;;;-10.82;79.76;100923.50;5003620;28;19918;-67
2022/12/10 09:02:08;;;;;;;;;;;;;;;-10.83;79.97;100930.41;5001208;28;20357;-67
2022/12/10 09:04:33;;;;;;;;;;;;;;;-10.82;80.17;100928.69;5001862;28;20577;-66
2022/12/10 09:06:58;;;;;;;;;;;;;;;-10.82;80.05;100932.13;5001122;28;19921;-66
2022/12/10 09:09:24;;;;;;;;;;;;;;;-10.81;79.82;100926.03;5002218;28;19924;-66
2022/12/10 09:11:49;;;;;;;;;;;;;;;-10.80;80.34;100932.91;5002434;28;20377;-66
2022/12/10 09:14:14;;;;;;;;;;;;;;;-10.68;80.83;100938.63;5001978;28;19921;-66
2022/12/10 09:16:43;;;;;;;;;;;;;;;-10.62;80.63;100934.13;5002090;28;19932;-67
2022/12/10 09:19:09;;;;;;;;;;;;;;;-10.58;80.36;100938.31;5002162;28;19940;-66
2022/12/10 09:21:35;;;;;;;;;;;;;;;-10.56;80.15;100933.91;5001945;28;20293;-66
2022/12/10 09:24:00;;;;;;;;;;;;;;;-10.50;80.21;100932.03;5002647;28;19917;-67
2022/12/10 09:26:25;;;;;;;;;;;;;;;-10.47;80.14;100937.97;5001199;28;19960;-66
2022/12/10 09:28:51;;;;;;;;;;;;;;;-10.43;80.02;100952.56;5002303;28;20505;-67
2022/12/10 09:31:17;;;;;;;;;;;;;;;-10.39;80.00;100941.16;5003063;28;20035;-66
2022/12/10 09:33:42;;;;;;;;;;;;;;;-10.34;80.13;100946.22;5001108;28;19917;-66
2022/12/10 09:36:09;;;;;;;;;;;;;;;-10.22;80.19;100950.16;5002445;28;20024;-66
2022/12/10 09:38:35;;;;;;;;;;;;;;;-10.14;79.98;100940.34;5002177;28;19930;-67
2022/12/10 09:41:04;;;;;;;;;;;;;;;-10.09;80.17;100935.84;5002424;28;19921;-67
2022/12/10 09:43:35;;;;;;;;;;;;;;;-10.05;79.85;100947.84;5001839;28;19918;-67
2022/12/10 09:46:01;;;;;;;;;;;;;;;-9.96;79.91;100944.94;5001873;28;19972;-66
2022/12/10 09:48:32;;;;;;;;;;;;;;;-9.83;80.41;100936.75;5000607;28;19918;-66
2022/12/10 09:51:00;;;;;;;;;;;;;;;-9.73;79.51;100940.75;5000559;28;20285;-67
2022/12/10 09:53:28;;;;;;;;;;;;;;;-9.67;79.01;100943.13;5001607;28;19924;-66
2022/12/10 09:55:53;;;;;;;;;;;;;;;-9.59;78.92;100935.91;5001425;28;19969;-66
2022/12/10 09:58:20;;;;;;;;;;;;;;;-9.43;78.88;100940.56;5002303;28;19956;-66
2022/12/10 10:00:47;;;;;;;;;;;;;;;-9.24;77.96;100939.00;5002151;28;19917;-67
2022/12/10 10:03:14;;;;;;;;;;;;;;;-9.24;77.69;100940.75;5002580;28;19917;-67
2022/12/10 10:05:45;;;;;;;;;;;;;;;-9.25;77.89;100945.09;5002121;28;19918;-67
2022/12/10 10:08:23;;;;;;;;;;;;;;;-9.21;77.62;100935.44;5001122;28;19918;-67
2022/12/10 10:10:48;;;;;;;;;;;;;;;-9.15;77.63;100940.44;5002434;28;19932;-67
2022/12/10 10:13:26;;;;;;;;;;;;;;;-9.16;77.45;100936.09;5002344;28;19918;-67
2022/12/10 10:15:51;;;;;;;;;;;;;;;-9.03;76.94;100944.31;5002459;28;19921;-67
2022/12/10 10:18:20;;;;;;;;;;;;;;;-9.04;77.11;100940.03;5003151;28;20465;-67
2022/12/10 10:20:45;;;;;;;;;;;;;;;-9.03;77.16;100944.31;5005397;28;19955;-67
2022/12/10 10:23:13;;;;;;;;;;;;;;;-8.99;76.97;100951.09;5007793;28;19918;-67
2022/12/10 10:25:38;;;;;;;;;;;;;;;-9.01;76.79;100951.16;5004373;28;20004;-67
2022/12/10 10:28:04;;;;;;;;;;;;;;;-9.03;77.12;100945.16;5004788;28;20004;-67
2022/12/10 10:30:29;;;;;;;;;;;;;;;-8.97;77.32;100949.28;5001601;28;20308;-66
2022/12/10 10:32:56;;;;;;;;;;;;;;;-8.86;77.24;100943.69;5002329;28;20350;-67
2022/12/10 10:35:41;;;;;;;;;;;;;;;-8.76;77.36;100951.09;5001337;28;19925;-67
2022/12/10 10:38:13;;;;;;;;;;;;;;;-8.63;76.93;100950.63;4999753;28;19918;-66
2022/12/10 10:40:45;;;;;;;;;;;;;;;-8.48;76.63;100950.03;5001547;28;20293;-66
2022/12/10 10:43:22;;;;;;;;;;;;;;;-8.37;76.02;100946.97;4999987;28;20555;-66
2022/12/10 10:45:49;;;;;;;;;;;;;;;-8.24;75.62;100948.19;5001489;28;20423;-67
2022/12/10 10:48:17;;;;;;;;;;;;;;;-8.19;75.25;100947.97;5001457;28;19944;-67
2022/12/10 10:50:46;;;;;;;;;;;;;;;-8.07;75.31;100941.44;5001272;28;20005;-67
2022/12/10 10:53:20;;;;;;;;;;;;;;;-7.96;75.11;100941.84;5001002;28;19972;-67
2022/12/10 10:55:46;;;;;;;;;;;;;;;-7.78;74.77;100940.25;5000952;28;19925;-67
2022/12/10 10:58:17;;;;;;;;;;;;;;;-7.67;74.32;100927.59;5001636;28;19913;-67
2022/12/10 11:00:52;;;;;;;;;;;;;;;-7.56;74.04;100929.72;5001803;28;19949;-67
2022/12/10 11:03:17;;;;;;;;;;;;;;;-7.44;73.89;100937.03;5003205;28;19967;-67
2022/12/10 11:05:46;;;;;;;;;;;;;;;-7.27;73.74;100927.63;5005328;28;20057;-67
2022/12/10 11:08:20;;;;;;;;;;;;;;;-7.06;72.79;100931.84;5004526;28;19941;-67
2022/12/10 11:10:55;;;;;;;;;;;;;;;-6.92;72.57;100928.63;5004988;28;19938;-66
2022/12/10 11:13:28;;;;;;;;;;;;;;;-6.76;72.67;100920.94;5004858;28;19964;-67
2022/12/10 11:16:08;;;;;;;;;;;;;;;-6.64;72.11;100925.59;5005762;28;19984;-67
2022/12/10 11:18:37;;;;;;;;;;;;;;;-6.36;70.86;100931.28;5003791;28;19948;-67
2022/12/10 11:21:02;;;;;;;;;;;;;;;-4.16;68.86;100927.56;5004830;28;19926;-67
2022/12/10 11:23:39;;;;;;;;;;;;;;;-1.29;59.37;100923.63;5004552;28;19933;-67
2022/12/10 11:26:13;;;;;;;;;;;;;;;0.34;53.74;100920.63;5004877;28;20418;-67
2022/12/10 11:28:38;;;;;;;;;;;;;;;1.28;49.24;100920.44;5003871;28;19944;-67
2022/12/10 11:31:20;;;;;;;;;;;;;;;2.18;47.23;100922.00;5007192;28;20366;-67
2022/12/10 11:33:51;;;;;;;;;;;;;;;2.05;46.50;100915.06;5005670;28;20020;-67
2022/12/10 11:36:22;;;;;;;;;;;;;;;1.63;47.24;100916.78;5004835;28;19941;-67
2022/12/10 11:38:51;;;;;;;;;;;;;;;1.06;47.17;100924.81;5004755;28;20341;-67
2022/12/10 11:41:16;;;;;;;;;;;;;;;-0.65;49.56;100927.03;5004509;28;20596;-67
2022/12/10 11:44:00;;;;;;;;;;;;;;;-1.81;52.80;100923.56;5004409;28;19917;-67
2022/12/10 11:46:44;;;;;;;;;;;;;;;-0.73;52.89;100928.50;5003886;28;19922;-67
2022/12/10 11:49:12;;;;;;;;;;;;;;;-0.29;53.06;100924.47;5004816;28;19984;-67
2022/12/10 11:51:51;;;;;;;;;;;;;;;0.05;50.97;100927.25;5004185;28;19968;-67
2022/12/10 11:54:16;;;;;;;;;;;;;;;0.27;51.67;100924.69;5004217;28;19979;-68
2022/12/10 11:56:46;;;;;;;;;;;;;;;-0.15;48.02;100924.28;5004279;28;20322;-68
2022/12/10 11:59:15;;;;;;;;;;;;;;;-0.01;51.11;100918.00;5004491;28;19917;-67
2022/12/10 12:01:47;;;;;;;;;;;;;;;0.50;50.00;100924.75;5003407;28;20275;-67
2022/12/10 12:04:18;;;;;;;;;;;;;;;0.64;50.63;100918.41;5004064;28;19917;-67
2022/12/10 12:06:43;;;;;;;;;;;;;;;0.40;49.65;100919.31;5004683;28;20273;-68
2022/12/10 12:09:15;;;;;;;;;;;;;;;0.19;50.12;100914.69;5002803;28;19918;-67
2022/12/10 12:11:40;;;;;;;;;;;;;;;-0.06;50.53;100918.31;5002906;28;20000;-68
2022/12/10 12:14:15;;;;;;;;;;;;;;;-0.22;51.35;100915.16;5002139;28;20020;-68
2022/12/10 12:16:44;;;;;;;;;;;;;;;-0.40;51.79;100914.69;5003129;28;20350;-67
2022/12/10 12:19:35;;;;;;;;;;;;;;;-0.65;52.02;100919.09;5003325;28;19928;-67
2022/12/10 12:22:07;;;;;;;;;;;;;;;-1.14;54.67;100919.09;4998510;28;19924;-67
2022/12/10 12:24:35;;;;;;;;;;;;;;;-1.80;53.53;100917.38;5003105;28;19917;-67
2022/12/10 12:27:02;;;;;;;;;;;;;;;-2.45;55.70;100930.41;5004529;28;19918;-67
2022/12/10 12:29:30;;;;;;;;;;;;;;;-3.02;58.60;100926.94;5003809;28;19917;-67
2022/12/10 12:32:25;;;;;;;;;;;;;;;-3.27;58.03;100919.72;5003431;28;19953;-67
2022/12/10 12:35:01;;;;;;;;;;;;;;;-3.20;55.61;100923.66;4987804;28;19922;-67
2022/12/10 12:37:41;;;;;;;;;;;;;;;-2.91;54.82;100921.03;5003130;28;19963;-67
2022/12/10 12:40:10;;;;;;;;;;;;;;;-2.42;54.79;100915.28;5004659;28;20008;-67
2022/12/10 12:42:42;;;;;;;;;;;;;;;-2.02;53.18;100914.47;5003855;28;19925;-67
2022/12/10 12:45:24;;;;;;;;;;;;;;;-1.58;53.93;100914.13;5003576;28;20269;-68
2022/12/10 12:47:55;;;;;;;;;;;;;;;-1.27;53.08;100919.09;5003642;28;19917;-68
2022/12/10 12:50:27;;;;;;;;;;;;;;;-1.28;51.69;100914.75;5003782;28;19914;-68
2022/12/10 12:52:59;;;;;;;;;;;;;;;-1.56;52.41;100912.25;5002901;28;19931;-68
2022/12/10 12:55:37;;;;;;;;;;;;;;;-2.29;54.11;100911.88;5004396;28;19928;-68